Time;durP1;ratioP1;P1;durP2;ratioP2;P2;SDS_P1;SDS_P2;PMS_P1;PMS_P2;Temp;Humidity;BMP_temperature;BMP_pressure;BME280_temperature;BME280_humidity;BME280_pressure;Samples;Min_cycle;Max_cycle;Signal;HPM_P1;HPM_P2
2023/04/14 00:02:21;;;;;;;5.20;2.33;;;6.90;99.90;;;;;;5030179;28;20220;-81
2023/04/14 00:04:52;;;;;;;9.40;2.97;;;6.80;99.90;;;;;;5032525;28;20282;-78
2023/04/14 00:07:19;;;;;;;11.13;3.23;;;6.80;99.90;;;;;;5030929;28;20222;-80
2023/04/14 00:09:47;;;;;;;10.07;2.23;;;6.80;99.90;;;;;;5031175;28;20203;-77
2023/04/14 00:12:14;;;;;;;16.40;4.33;;;6.80;99.90;;;;;;5031108;28;20295;-80
2023/04/14 00:14:42;;;;;;;14.30;3.53;;;6.70;99.90;;;;;;5032038;28;20580;-82
2023/04/14 00:17:09;;;;;;;14.20;3.23;;;6.70;99.90;;;;;;5012285;28;20214;-80
2023/04/14 00:19:36;;;;;;;11.67;2.50;;;6.70;99.90;;;;;;5011868;28;20203;-79
2023/04/14 00:22:02;;;;;;;14.53;3.43;;;6.70;99.90;;;;;;5026459;28;20206;-80
2023/04/14 00:24:29;;;;;;;8.87;3.93;;;6.70;99.90;;;;;;5031421;28;20807;-79
2023/04/14 00:26:58;;;;;;;12.07;2.43;;;6.70;99.90;;;;;;5032027;28;20202;-83
2023/04/14 00:29:25;;;;;;;9.47;2.30;;;6.60;99.90;;;;;;5045017;28;20215;-84
2023/04/14 00:31:52;;;;;;;7.90;3.07;;;6.60;99.90;;;;;;5073517;28;20284;-81
2023/04/14 00:34:18;;;;;;;12.70;2.73;;;6.60;99.90;;;;;;5075779;28;20212;-79
2023/04/14 00:36:45;;;;;;;8.73;2.47;;;6.60;99.90;;;;;;5076180;28;20253;-80
2023/04/14 00:39:12;;;;;;;10.50;2.77;;;6.50;99.90;;;;;;5074782;28;20240;-85
2023/04/14 00:41:40;;;;;;;10.23;2.70;;;6.50;99.90;;;;;;5075143;28;20288;-82
2023/04/14 00:44:08;;;;;;;10.57;3.63;;;6.50;99.90;;;;;;5074110;28;20197;-83
2023/04/14 00:46:35;;;;;;;12.83;3.20;;;6.50;99.90;;;;;;5073568;28;20611;-78
2023/04/14 00:49:03;;;;;;;9.77;2.83;;;6.50;99.90;;;;;;5071735;28;20205;-80
2023/04/14 00:51:30;;;;;;;7.50;3.10;;;6.40;99.90;;;;;;5074096;28;20197;-85
2023/04/14 00:53:57;;;;;;;11.23;2.90;;;6.40;99.90;;;;;;5073708;28;20311;-86
2023/04/14 00:56:26;;;;;;;8.97;2.70;;;6.40;99.90;;;;;;5073935;28;20215;-87
2023/04/14 00:58:53;;;;;;;9.60;2.57;;;6.40;99.90;;;;;;5072817;28;20490;-84
2023/04/14 01:01:23;;;;;;;11.60;3.30;;;6.30;99.90;;;;;;5073248;28;20209;-84
2023/04/14 01:03:51;;;;;;;11.83;2.93;;;6.40;99.90;;;;;;5074025;28;20205;-83
2023/04/14 01:06:18;;;;;;;8.43;2.77;;;6.30;99.90;;;;;;5072601;28;20209;-79
2023/04/14 01:08:45;;;;;;;8.60;2.50;;;6.30;99.90;;;;;;5073545;28;20278;-79
2023/04/14 01:11:17;;;;;;;7.03;3.00;;;6.30;99.90;;;;;;5073453;28;20601;-84
2023/04/14 01:13:53;;;;;;;14.40;3.07;;;6.30;99.90;;;;;;5072342;28;20574;-78
2023/04/14 01:16:28;;;;;;;6.27;2.57;;;6.30;99.90;;;;;;5073737;28;20204;-84
2023/04/14 01:19:05;;;;;;;9.27;3.73;;;6.20;99.90;;;;;;5073498;28;20679;-85
2023/04/14 01:21:37;;;;;;;9.50;2.77;;;6.30;99.90;;;;;;5073808;28;20224;-85
2023/04/14 01:24:44;;;;;;;9.80;3.33;;;6.20;99.90;;;;;;5074302;28;20519;-88
2023/04/14 01:27:32;;;;;;;8.67;2.53;;;6.20;99.90;;;;;;5073921;28;20249;-86
2023/04/14 01:30:31;;;;;;;11.13;3.50;;;6.20;99.90;;;;;;5073559;28;20205;-85
2023/04/14 01:33:04;;;;;;;10.80;4.47;;;6.10;99.90;;;;;;5072795;28;20896;-88
2023/04/14 01:35:36;;;;;;;9.50;3.17;;;6.10;99.90;;;;;;5073038;28;20201;-86
2023/04/14 01:38:08;;;;;;;7.70;3.17;;;6.10;99.90;;;;;;5073479;28;20212;-84
2023/04/14 01:40:37;;;;;;;7.90;3.30;;;6.00;99.90;;;;;;5072034;28;20256;-81
2023/04/14 01:43:10;;;;;;;9.60;3.20;;;6.00;99.90;;;;;;5072284;28;20216;-82
2023/04/14 01:45:39;;;;;;;9.00;2.93;;;6.00;99.90;;;;;;5073108;28;20185;-84
2023/04/14 01:48:09;;;;;;;12.23;3.13;;;6.00;99.90;;;;;;5072843;28;20219;-81
2023/04/14 01:50:37;;;;;;;8.00;3.23;;;6.00;99.90;;;;;;5072317;28;20484;-80
2023/04/14 01:53:06;;;;;;;10.27;3.70;;;5.90;99.90;;;;;;5072184;28;20268;-81
2023/04/14 01:55:37;;;;;;;7.30;3.20;;;5.90;99.90;;;;;;5071726;28;20198;-80
2023/04/14 01:58:06;;;;;;;9.33;3.33;;;5.90;99.90;;;;;;5072620;28;20211;-80
2023/04/14 02:00:35;;;;;;;9.30;3.07;;;5.90;99.90;;;;;;5073012;28;20291;-84
2023/04/14 02:03:04;;;;;;;7.93;3.50;;;5.90;99.90;;;;;;5070297;28;20201;-84
2023/04/14 02:05:36;;;;;;;8.90;3.37;;;5.90;99.90;;;;;;5072575;28;20277;-85
2023/04/14 02:08:07;;;;;;;11.93;4.67;;;5.80;99.90;;;;;;5071833;28;20189;-85
2023/04/14 02:10:35;;;;;;;8.97;3.57;;;5.80;99.90;;;;;;5071927;28;20193;-86
2023/04/14 02:13:04;;;;;;;8.70;3.20;;;5.80;99.90;;;;;;5066884;28;20205;-85
2023/04/14 02:15:32;;;;;;;10.27;3.17;;;5.80;99.90;;;;;;5070540;28;20229;-84
2023/04/14 02:17:59;;;;;;;10.93;4.27;;;5.70;99.90;;;;;;5075678;28;20304;-85
2023/04/14 02:20:28;;;;;;;8.87;3.97;;;5.70;99.90;;;;;;5076515;28;20205;-85
2023/04/14 02:22:56;;;;;;;9.20;3.83;;;5.70;99.90;;;;;;5075385;28;20575;-86
2023/04/14 02:25:27;;;;;;;8.53;3.60;;;5.70;99.90;;;;;;5076188;28;20284;-83
2023/04/14 02:27:57;;;;;;;10.00;4.77;;;5.60;99.90;;;;;;5071950;28;20292;-81
2023/04/14 02:30:30;;;;;;;10.67;4.60;;;5.60;99.90;;;;;;5075288;28;20655;-85
2023/04/14 02:33:01;;;;;;;11.17;4.30;;;5.60;99.90;;;;;;5075629;28;20193;-83
2023/04/14 02:35:31;;;;;;;7.30;3.27;;;5.60;99.90;;;;;;5076179;28;20196;-85
2023/04/14 02:38:08;;;;;;;11.80;4.23;;;5.60;99.90;;;;;;5075114;28;20285;-85
2023/04/14 02:40:38;;;;;;;5.80;3.23;;;5.50;99.90;;;;;;5075291;28;20530;-84
2023/04/14 02:43:12;;;;;;;10.20;4.10;;;5.50;99.90;;;;;;5075354;28;20280;-82
2023/04/14 02:45:42;;;;;;;6.73;3.93;;;5.50;99.90;;;;;;5076029;28;20247;-82
2023/04/14 02:48:12;;;;;;;8.03;4.00;;;5.50;99.90;;;;;;5075481;28;20215;-82
2023/04/14 02:50:42;;;;;;;10.30;4.03;;;5.50;99.90;;;;;;5075851;28;20284;-81
2023/04/14 02:53:11;;;;;;;8.63;5.43;;;5.50;99.90;;;;;;5068757;28;20640;-82
2023/04/14 02:55:39;;;;;;;8.10;4.07;;;5.50;99.90;;;;;;5066986;28;20288;-84
2023/04/14 02:58:07;;;;;;;11.40;4.10;;;5.50;99.90;;;;;;5072726;28;20220;-84
2023/04/14 03:00:35;;;;;;;13.77;5.27;;;5.40;99.90;;;;;;5076647;28;20201;-85
2023/04/14 03:03:05;;;;;;;12.90;4.20;;;5.40;99.90;;;;;;5075520;28;20209;-85
2023/04/14 03:05:33;;;;;;;13.03;5.97;;;5.40;99.90;;;;;;5075721;28;20197;-88
2023/04/14 03:08:02;;;;;;;10.73;4.47;;;5.40;99.90;;;;;;5075801;28;20201;-84
2023/04/14 03:10:31;;;;;;;11.33;4.27;;;5.40;99.90;;;;;;5074997;28;20197;-83
2023/04/14 03:13:00;;;;;;;7.77;3.93;;;5.40;99.90;;;;;;5054951;28;20194;-83
2023/04/14 03:15:28;;;;;;;10.17;4.97;;;5.40;99.90;;;;;;5061582;28;20201;-85
2023/04/14 03:17:56;;;;;;;9.33;4.13;;;5.40;99.90;;;;;;5075128;28;20215;-80
2023/04/14 03:20:23;;;;;;;12.37;4.40;;;5.40;99.90;;;;;;5074241;28;20284;-82
2023/04/14 03:22:56;;;;;;;7.60;3.57;;;5.40;99.90;;;;;;5073356;28;20606;-82
2023/04/14 03:25:26;;;;;;;9.63;4.30;;;5.40;99.90;;;;;;5073703;28;20250;-80
2023/04/14 03:27:56;;;;;;;11.77;4.90;;;5.40;99.90;;;;;;5074595;28;20204;-80
2023/04/14 03:30:25;;;;;;;7.70;4.20;;;5.40;99.90;;;;;;5074786;28;20221;-78
2023/04/14 03:32:54;;;;;;;9.70;5.20;;;5.30;99.90;;;;;;5073150;28;20201;-79
2023/04/14 03:35:22;;;;;;;13.27;6.80;;;5.30;99.90;;;;;;5074050;28;20227;-79
2023/04/14 03:37:51;;;;;;;10.17;5.30;;;5.40;99.90;;;;;;5074188;28;20198;-84
2023/04/14 03:40:19;;;;;;;11.83;5.43;;;5.30;99.90;;;;;;5072445;28;20237;-79
2023/04/14 03:42:47;;;;;;;8.27;5.00;;;5.30;99.90;;;;;;5074162;28;20197;-77
2023/04/14 03:45:15;;;;;;;12.97;5.20;;;5.30;99.90;;;;;;5073880;28;20276;-79
2023/04/14 03:47:42;;;;;;;18.13;5.50;;;5.30;99.90;;;;;;5072659;28;20725;-78
2023/04/14 03:50:11;;;;;;;14.20;5.67;;;5.30;99.90;;;;;;5073710;28;20280;-80
2023/04/14 03:52:41;;;;;;;10.33;5.70;;;5.30;99.90;;;;;;5073454;28;20224;-79
2023/04/14 03:55:11;;;;;;;9.47;5.77;;;5.30;99.90;;;;;;5074784;28;20209;-88
2023/04/14 03:57:42;;;;;;;11.17;5.73;;;5.30;99.90;;;;;;5076021;28;20275;-89
2023/04/14 04:00:11;;;;;;;11.23;6.07;;;5.30;99.90;;;;;;5075493;28;20553;-87
2023/04/14 04:02:41;;;;;;;12.10;6.03;;;5.30;99.90;;;;;;5074997;28;20292;-87
2023/04/14 04:05:10;;;;;;;14.50;5.23;;;5.30;99.90;;;;;;5075000;28;20595;-86
2023/04/14 04:07:38;;;;;;;11.93;5.37;;;5.30;99.90;;;;;;5075330;28;20201;-86
2023/04/14 04:10:07;;;;;;;17.60;6.20;;;5.20;99.90;;;;;;5075364;28;20779;-87
2023/04/14 04:12:36;;;;;;;10.40;5.27;;;5.20;99.90;;;;;;5075527;28;20189;-86
2023/04/14 04:15:03;;;;;;;13.70;6.27;;;5.20;99.90;;;;;;5073987;28;20296;-86
2023/04/14 04:17:32;;;;;;;12.57;6.27;;;5.20;99.90;;;;;;5073993;28;20502;-83
2023/04/14 04:20:03;;;;;;;11.30;6.50;;;5.20;99.90;;;;;;5073948;28;20241;-87
2023/04/14 04:22:31;;;;;;;11.33;6.20;;;5.20;99.90;;;;;;5072743;28;20800;-87
2023/04/14 04:24:58;;;;;;;9.97;6.13;;;5.20;99.90;;;;;;5073966;28;20205;-84
2023/04/14 04:27:26;;;;;;;15.63;6.60;;;5.20;99.90;;;;;;5074010;28;20816;-85
2023/04/14 04:29:53;;;;;;;15.33;6.67;;;5.10;99.90;;;;;;5074100;28;20194;-87
2023/04/14 04:32:20;;;;;;;15.80;6.80;;;5.10;99.90;;;;;;5074170;28;20607;-85
2023/04/14 04:34:49;;;;;;;12.40;6.50;;;5.10;99.90;;;;;;5074452;28;20205;-87
2023/04/14 04:37:19;;;;;;;15.40;6.97;;;5.10;99.90;;;;;;5073899;28;20493;-88
2023/04/14 04:39:47;;;;;;;12.87;6.13;;;5.10;99.90;;;;;;5073711;28;20235;-86
2023/04/14 04:42:15;;;;;;;11.67;6.40;;;5.10;99.90;;;;;;5072579;28;20238;-86
2023/04/14 04:44:42;;;;;;;12.40;5.77;;;5.10;99.90;;;;;;5073093;28;20204;-85
2023/04/14 04:47:10;;;;;;;10.17;5.80;;;5.10;99.90;;;;;;5072726;28;20193;-87
2023/04/14 04:49:40;;;;;;;13.17;7.50;;;5.00;99.90;;;;;;5073757;28;20194;-86
2023/04/14 04:52:07;;;;;;;14.13;7.13;;;5.00;99.90;;;;;;5074758;28;20197;-86
2023/04/14 04:54:35;;;;;;;15.23;7.30;;;5.00;99.90;;;;;;5072984;28;20279;-80
2023/04/14 04:57:02;;;;;;;12.60;6.57;;;5.00;99.90;;;;;;5071678;28;20259;-82
2023/04/14 04:59:29;;;;;;;18.07;6.60;;;5.00;99.90;;;;;;5072209;28;20245;-80
2023/04/14 05:01:56;;;;;;;13.30;6.60;;;5.00;99.90;;;;;;5072953;28;20236;-79
2023/04/14 05:04:24;;;;;;;17.40;7.40;;;5.10;99.90;;;;;;5070272;28;20377;-80
2023/04/14 05:06:51;;;;;;;16.67;7.70;;;5.10;99.90;;;;;;5072178;28;20292;-79
2023/04/14 05:09:18;;;;;;;13.57;6.57;;;5.10;99.90;;;;;;5069487;28;20548;-79
2023/04/14 05:11:46;;;;;;;14.20;6.30;;;5.10;99.90;;;;;;5071616;28;20284;-79
2023/04/14 05:14:13;;;;;;;19.07;8.20;;;5.10;99.90;;;;;;5072172;28;20201;-79
2023/04/14 05:16:40;;;;;;;15.33;7.73;;;5.10;99.90;;;;;;5071758;28;20197;-81
2023/04/14 05:19:07;;;;;;;18.23;8.10;;;5.10;99.90;;;;;;5071371;28;20225;-79
2023/04/14 05:21:34;;;;;;;12.43;6.57;;;5.10;99.90;;;;;;5071935;28;20228;-81
2023/04/14 05:24:01;;;;;;;17.43;7.33;;;5.10;99.90;;;;;;5072830;28;20201;-82
2023/04/14 05:26:28;;;;;;;14.83;6.90;;;5.10;99.90;;;;;;5071962;28;20258;-79
2023/04/14 05:28:56;;;;;;;13.33;6.97;;;5.10;99.90;;;;;;5071936;28;20292;-81
2023/04/14 05:31:23;;;;;;;12.70;7.20;;;5.10;99.90;;;;;;5072136;28;20658;-80
2023/04/14 05:33:50;;;;;;;11.10;6.57;;;5.20;99.90;;;;;;5070894;28;20503;-79
2023/04/14 05:36:17;;;;;;;17.77;8.00;;;5.20;99.90;;;;;;5072316;28;20653;-81
2023/04/14 05:38:44;;;;;;;18.60;7.97;;;5.20;99.90;;;;;;5071622;28;20305;-79
2023/04/14 05:41:11;;;;;;;15.17;7.57;;;5.30;99.90;;;;;;5071709;28;20215;-82
2023/04/14 05:43:38;;;;;;;14.87;7.07;;;5.30;99.90;;;;;;5071809;28;20646;-80
2023/04/14 05:46:06;;;;;;;15.00;8.17;;;5.30;99.90;;;;;;5075655;28;20231;-83
2023/04/14 05:48:36;;;;;;;16.70;8.50;;;5.30;99.90;;;;;;5076880;28;20288;-80
2023/04/14 05:51:03;;;;;;;20.70;8.70;;;5.30;99.90;;;;;;5076766;28;20577;-82
2023/04/14 05:53:30;;;;;;;21.60;9.77;;;5.40;99.90;;;;;;5076743;28;20308;-81
2023/04/14 05:55:57;;;;;;;21.57;9.60;;;5.40;99.90;;;;;;5077044;28;20193;-79
2023/04/14 05:58:25;;;;;;;21.60;9.70;;;5.40;99.90;;;;;;5059707;28;20206;-82
2023/04/14 06:00:52;;;;;;;22.43;9.87;;;5.50;99.90;;;;;;5055556;28;20227;-80
2023/04/14 06:03:20;;;;;;;23.97;10.17;;;5.60;99.90;;;;;;5056194;28;20237;-82
2023/04/14 06:05:49;;;;;;;19.83;10.87;;;5.60;99.90;;;;;;5063868;28;20621;-82
2023/04/14 06:08:16;;;;;;;28.77;11.37;;;5.70;99.90;;;;;;5075591;28;20201;-81
2023/04/14 06:10:43;;;;;;;23.07;10.90;;;5.70;99.90;;;;;;5075904;28;20212;-81
2023/04/14 06:13:10;;;;;;;19.73;11.23;;;5.70;99.90;;;;;;5076424;28;20200;-80
2023/04/14 06:15:37;;;;;;;27.87;11.93;;;5.80;99.90;;;;;;5071019;28;20207;-85
2023/04/14 06:18:04;;;;;;;25.70;10.70;;;5.80;99.90;;;;;;5076058;28;20193;-84
2023/04/14 06:20:33;;;;;;;21.07;10.67;;;5.80;99.90;;;;;;5075776;28;20300;-82
2023/04/14 06:22:59;;;;;;;21.03;11.00;;;5.90;99.90;;;;;;5076035;28;20280;-82
2023/04/14 06:25:26;;;;;;;22.23;11.33;;;5.90;99.90;;;;;;5076695;28;20217;-86
2023/04/14 06:27:53;;;;;;;27.80;11.30;;;6.00;99.90;;;;;;5076568;28;20551;-86
2023/04/14 06:30:20;;;;;;;22.57;10.33;;;6.00;99.90;;;;;;5076062;28;20545;-81
2023/04/14 06:32:52;;;;;;;20.93;10.60;;;6.10;99.90;;;;;;5075317;28;20495;-83
2023/04/14 06:35:19;;;;;;;20.13;9.80;;;6.10;99.90;;;;;;5075024;28;20197;-86
2023/04/14 06:37:48;;;;;;;22.63;9.47;;;6.20;99.90;;;;;;5075789;28;20276;-82
2023/04/14 06:40:15;;;;;;;20.47;9.90;;;6.20;99.90;;;;;;5073153;28;20233;-83
2023/04/14 06:42:42;;;;;;;18.93;9.50;;;6.30;99.90;;;;;;5073754;28;20190;-82
2023/04/14 06:45:09;;;;;;;20.07;9.13;;;6.40;99.90;;;;;;5074007;28;20281;-81
2023/04/14 06:47:36;;;;;;;17.97;8.60;;;6.50;99.90;;;;;;5074150;28;20288;-83
2023/04/14 06:50:04;;;;;;;22.40;9.50;;;6.60;99.90;;;;;;5074542;28;20190;-81
2023/04/14 06:52:30;;;;;;;19.93;9.03;;;6.60;99.90;;;;;;5075130;28;20308;-85
2023/04/14 06:54:59;;;;;;;20.50;8.50;;;6.70;99.90;;;;;;5075734;28;20237;-87
2023/04/14 06:57:26;;;;;;;21.30;8.60;;;6.70;99.90;;;;;;5073387;28;20661;-83
2023/04/14 06:59:53;;;;;;;23.27;8.77;;;6.80;99.90;;;;;;5075065;28;20749;-81
2023/04/14 07:02:19;;;;;;;20.53;10.30;;;6.90;99.90;;;;;;5075346;28;20189;-82
2023/04/14 07:04:46;;;;;;;21.17;9.10;;;7.00;99.90;;;;;;5074385;28;20205;-81
2023/04/14 07:07:13;;;;;;;20.37;8.57;;;7.10;99.90;;;;;;5074901;28;20200;-83
2023/04/14 07:09:42;;;;;;;21.07;9.10;;;7.10;99.90;;;;;;5074311;28;20201;-82
2023/04/14 07:12:16;;;;;;;17.97;8.53;;;7.20;99.90;;;;;;5074605;28;20213;-86
2023/04/14 07:14:49;;;;;;;17.63;8.47;;;7.30;99.90;;;;;;5074927;28;20317;-81
2023/04/14 07:17:16;;;;;;;22.10;9.50;;;7.40;99.90;;;;;;5075308;28;20221;-81
2023/04/14 07:19:43;;;;;;;21.63;8.93;;;7.60;99.90;;;;;;5075129;28;20308;-80
2023/04/14 07:22:10;;;;;;;29.80;11.23;;;7.70;99.90;;;;;;5074638;28;20229;-82
2023/04/14 07:24:37;;;;;;;21.07;8.73;;;7.90;99.90;;;;;;5054502;28;20210;-83
2023/04/14 07:27:06;;;;;;;21.97;8.93;;;8.20;99.90;;;;;;5062860;28;20261;-82
2023/04/14 07:29:34;;;;;;;23.80;9.17;;;8.40;99.90;;;;;;5071681;28;20254;-83
2023/04/14 07:32:01;;;;;;;24.67;10.07;;;8.60;99.90;;;;;;5071147;28;20696;-81
2023/04/14 07:34:28;;;;;;;22.07;8.70;;;8.90;99.90;;;;;;5072856;28;20215;-81
2023/04/14 07:36:56;;;;;;;28.47;9.63;;;9.10;99.90;;;;;;5074724;28;20205;-84
2023/04/14 07:39:23;;;;;;;23.20;8.50;;;9.20;99.90;;;;;;5074885;28;20327;-86
2023/04/14 07:41:50;;;;;;;21.03;8.40;;;9.30;99.90;;;;;;5075227;28;20208;-81
2023/04/14 07:44:17;;;;;;;20.43;8.53;;;9.40;99.90;;;;;;5075169;28;20248;-82
2023/04/14 07:46:45;;;;;;;22.30;8.23;;;9.60;99.90;;;;;;5073842;28;20284;-84
2023/04/14 07:49:12;;;;;;;16.90;7.70;;;9.70;99.90;;;;;;5073340;28;20199;-82
2023/04/14 07:51:39;;;;;;;20.17;9.27;;;9.80;99.90;;;;;;5074036;28;20804;-82
2023/04/14 07:54:06;;;;;;;18.07;6.90;;;10.00;99.90;;;;;;5072589;28;20221;-84
2023/04/14 07:56:33;;;;;;;14.23;7.30;;;10.10;99.90;;;;;;5073278;28;20280;-83
2023/04/14 07:59:00;;;;;;;10.50;5.67;;;10.20;99.90;;;;;;5073747;28;20601;-84
2023/04/14 08:01:27;;;;;;;13.80;5.67;;;10.40;99.90;;;;;;5073872;28;20532;-82
2023/04/14 08:03:55;;;;;;;11.87;5.20;;;10.50;99.90;;;;;;5072834;28;20243;-84
2023/04/14 08:06:22;;;;;;;12.40;5.70;;;10.70;99.90;;;;;;5074012;28;20201;-83
2023/04/14 08:08:49;;;;;;;10.43;4.53;;;11.00;99.90;;;;;;5072285;28;20205;-83
2023/04/14 08:11:16;;;;;;;5.47;3.60;;;11.10;99.90;;;;;;5073942;28;20228;-84
2023/04/14 08:13:43;;;;;;;9.60;4.33;;;11.20;99.90;;;;;;5072230;28;20229;-82
2023/04/14 08:16:10;;;;;;;7.73;3.90;;;11.40;99.90;;;;;;5072624;28;20200;-83
2023/04/14 08:18:37;;;;;;;10.70;3.70;;;11.40;99.90;;;;;;5072685;28;20212;-80
2023/04/14 08:21:06;;;;;;;7.03;3.23;;;11.50;99.90;;;;;;5072505;28;20253;-80
2023/04/14 08:23:33;;;;;;;11.43;3.90;;;11.50;99.90;;;;;;5073158;28;20250;-82
2023/04/14 08:26:00;;;;;;;7.93;3.97;;;11.60;99.90;;;;;;5073047;28;20201;-80
2023/04/14 08:28:28;;;;;;;9.13;4.17;;;11.90;99.90;;;;;;5072736;28;20586;-80
2023/04/14 08:30:55;;;;;;;8.13;2.97;;;12.00;99.90;;;;;;5072591;28;20205;-79
2023/04/14 08:33:22;;;;;;;7.40;3.70;;;12.10;99.90;;;;;;5072625;28;20205;-80
2023/04/14 08:35:49;;;;;;;7.07;3.03;;;12.30;99.90;;;;;;5071740;28;20192;-80
2023/04/14 08:38:19;;;;;;;8.13;2.67;;;12.60;99.90;;;;;;5071298;28;20205;-81
2023/04/14 08:40:48;;;;;;;9.47;3.50;;;12.80;99.90;;;;;;5071878;28;20232;-84
2023/04/14 08:43:16;;;;;;;6.90;2.67;;;12.90;99.90;;;;;;5071724;28;20213;-81
2023/04/14 08:45:44;;;;;;;5.50;2.20;;;13.00;99.90;;;;;;5071083;28;20590;-83
2023/04/14 08:48:14;;;;;;;8.07;2.93;;;13.10;3.60;;;;;;5072205;28;20490;-80
2023/04/14 08:50:49;;;;;;;9.63;2.40;;;13.20;27.90;;;;;;5072102;28;20246;-79
2023/04/14 08:53:21;;;;;;;5.47;1.83;;;13.30;31.80;;;;;;5073162;28;20248;-80
2023/04/14 08:55:50;;;;;;;7.97;2.33;;;13.60;18.40;;;;;;5064195;28;20201;-80
2023/04/14 08:58:17;;;;;;;7.63;2.83;;;13.80;1.00;;;;;;5063716;28;20277;-78
2023/04/14 09:00:44;;;;;;;9.23;2.67;;;13.70;1.00;;;;;;5070269;28;20221;-83
2023/04/14 09:03:12;;;;;;;8.77;2.53;;;13.90;1.00;;;;;;5073314;28;20213;-89
2023/04/14 09:05:41;;;;;;;6.00;2.13;;;14.00;1.00;;;;;;5074490;28;20251;-81
2023/04/14 09:08:07;;;;;;;6.57;2.10;;;14.20;1.00;;;;;;5073321;28;20507;-86
2023/04/14 09:10:36;;;;;;;6.57;2.50;;;14.20;1.00;;;;;;5057863;28;20498;-87
2023/04/14 09:13:05;;;;;;;6.33;2.43;;;14.30;1.00;;;;;;5069325;28;20254;-88
2023/04/14 09:15:32;;;;;;;4.67;1.80;;;14.50;1.00;;;;;;5064492;28;20197;-86
2023/04/14 09:17:59;;;;;;;6.93;2.10;;;14.60;1.00;;;;;;5061382;28;20265;-87
2023/04/14 09:20:26;;;;;;;4.73;2.10;;;14.70;1.00;;;;;;5052315;28;20683;-88
2023/04/14 09:22:53;;;;;;;4.45;2.08;;;14.70;99.90;;;;;;5073911;28;20205;-82
2023/04/14 09:25:21;;;;;;;4.80;2.00;;;14.60;1.00;;;;;;5074099;28;20197;-88
2023/04/14 09:27:50;;;;;;;5.93;2.30;;;14.70;1.00;;;;;;5072569;28;20201;-91
2023/04/14 09:30:17;;;;;;;3.60;1.47;;;14.90;1.00;;;;;;5072780;28;20219;-89
2023/04/14 09:32:44;;;;;;;3.57;1.57;;;14.90;99.90;;;;;;5070731;28;20254;-88
2023/04/14 09:35:13;;;;;;;3.20;1.80;;;15.00;1.00;;;;;;5062772;28;20209;-86
2023/04/14 09:37:43;;;;;;;4.77;1.70;;;15.30;99.90;;;;;;5073025;28;20229;-89
2023/04/14 09:40:26;;;;;;;3.88;1.48;;;15.40;1.00;;;;;;5073614;28;20244;-90
2023/04/14 09:42:56;;;;;;;6.37;1.50;;;15.30;99.90;;;;;;5063211;28;20225;-85
2023/04/14 09:45:23;;;;;;;3.73;1.30;;;15.10;1.00;;;;;;5069351;28;20233;-90
2023/04/14 09:48:06;;;;;;;2.33;1.20;;;15.10;1.00;;;;;;5073387;28;20205;-90
2023/04/14 09:50:35;;;;;;;4.13;1.27;;;15.30;25.80;;;;;;5053568;28;20206;-90
2023/04/14 09:53:04;;;;;;;6.50;1.73;;;15.40;99.90;;;;;;5061705;28;20225;-88
2023/04/14 09:55:31;;;;;;;4.50;1.55;;;15.40;99.90;;;;;;5073260;28;20299;-80
2023/04/14 09:58:00;;;;;;;4.83;2.27;;;15.30;99.90;;;;;;5072584;28;20215;-89
2023/04/14 10:00:27;;;;;;;5.90;1.67;;;15.30;99.90;;;;;;5071614;28;20221;-86
2023/04/14 10:02:57;;;;;;;2.83;1.50;;;15.40;99.90;;;;;;5072103;28;20512;-86
2023/04/14 10:05:27;;;;;;;5.47;1.25;;;15.40;99.90;;;;;;5072883;28;20201;-85
2023/04/14 10:07:54;;;;;;;3.83;1.35;;;15.50;99.90;;;;;;5072111;28;20451;-86
2023/04/14 10:10:24;;;;;;;5.60;1.40;;;15.60;99.90;;;;;;5071987;28;20300;-85
2023/04/14 10:12:54;;;;;;;4.10;1.75;;;15.70;99.90;;;;;;5052143;28;20209;-80
2023/04/14 10:15:22;;;;;;;4.72;1.52;;;15.70;99.90;;;;;;5066936;28;20552;-85
2023/04/14 10:17:50;;;;;;;9.23;1.95;;;15.90;99.90;;;;;;5071863;28;20205;-87
2023/04/14 10:20:17;;;;;;;3.15;1.60;;;15.90;99.90;;;;;;5071015;28;20209;-83
2023/04/14 10:22:44;;;;;;;6.80;1.52;;;15.80;99.90;;;;;;5068482;28;20204;-86
2023/04/14 10:25:12;;;;;;;4.32;1.40;;;15.80;99.90;;;;;;5052265;28;20293;-85
2023/04/14 10:27:39;;;;;;;3.60;1.60;;;15.70;99.90;;;;;;5052080;28;20234;-89
2023/04/14 10:30:08;;;;;;;6.32;1.63;;;15.50;99.90;;;;;;5066444;28;20216;-89
2023/04/14 10:32:39;;;;;;;5.45;1.85;;;15.50;99.90;;;;;;5068456;28;20209;-86
2023/04/14 10:35:09;;;;;;;4.40;1.70;;;15.30;99.90;;;;;;5076426;28;20310;-90
2023/04/14 10:37:36;;;;;;;3.30;1.20;;;15.50;99.90;;;;;;5076145;28;20561;-85
2023/04/14 10:40:05;;;;;;;4.03;1.40;;;15.60;99.90;;;;;;5075927;28;20279;-81
2023/04/14 10:42:55;;;;;;;2.05;1.20;;;15.80;99.90;;;;;;5075342;28;20225;-85
2023/04/14 10:45:22;;;;;;;4.53;1.58;;;15.90;99.90;;;;;;5076373;28;20322;-85
2023/04/14 10:47:51;;;;;;;3.83;1.50;;;15.80;99.90;;;;;;5075851;28;20634;-87
2023/04/14 10:50:23;;;;;;;2.80;1.40;;;15.70;99.90;;;;;;5076622;28;20233;-82
2023/04/14 10:52:53;;;;;;;3.42;1.60;;;15.70;99.90;;;;;;5076812;28;20213;-86
2023/04/14 10:55:22;;;;;;;5.15;1.48;;;15.50;99.90;;;;;;5076943;28;20509;-89
2023/04/14 10:57:49;;;;;;;4.97;1.83;;;15.70;99.90;;;;;;5076276;28;20208;-88
2023/04/14 11:00:25;;;;;;;4.63;1.05;;;15.70;99.90;;;;;;5076714;28;20284;-88
2023/04/14 11:03:03;;;;;;;3.95;1.40;;;16.10;99.90;;;;;;5076528;28;20240;-88
2023/04/14 11:05:33;;;;;;;4.70;1.42;;;16.20;99.90;;;;;;5075543;28;20200;-87
2023/04/14 11:08:00;;;;;;;5.68;1.50;;;16.40;99.90;;;;;;5075744;28;20205;-90
2023/04/14 11:10:36;;;;;;;2.47;1.27;;;16.50;99.90;;;;;;5075121;28;20201;-90
2023/04/14 11:13:06;;;;;;;3.65;1.92;;;16.70;99.90;;;;;;5075417;28;20207;-82
2023/04/14 11:15:50;;;;;;;2.55;1.30;;;16.60;99.90;;;;;;5075426;28;20259;-81
2023/04/14 11:18:20;;;;;;;7.18;2.13;;;16.60;99.90;;;;;;5071382;28;20236;-81
2023/04/14 11:20:47;;;;;;;3.78;1.30;;;16.80;99.90;;;;;;5070019;28;20233;-80
2023/04/14 11:23:15;;;;;;;3.17;1.55;;;16.90;99.90;;;;;;5075598;28;20205;-85
2023/04/14 11:25:42;;;;;;;5.40;1.60;;;16.60;99.90;;;;;;5074840;28;20580;-83
2023/04/14 11:28:09;;;;;;;6.10;1.63;;;16.20;99.90;;;;;;5075834;28;20607;-87
2023/04/14 11:30:36;;;;;;;4.70;1.75;;;16.10;99.90;;;;;;5076209;28;20284;-86
2023/04/14 11:33:03;;;;;;;4.43;1.90;;;16.00;99.90;;;;;;5075847;28;21176;-85
2023/04/14 11:35:32;;;;;;;2.38;1.27;;;16.20;99.90;;;;;;5076702;28;20689;-87
2023/04/14 11:38:00;;;;;;;4.43;1.92;;;16.40;99.90;;;;;;5075486;28;20185;-84
2023/04/14 11:40:27;;;;;;;4.10;1.75;;;16.50;99.90;;;;;;5075677;28;20241;-88
2023/04/14 11:42:56;;;;;;;4.20;1.70;;;16.90;99.90;;;;;;5066049;28;20226;-80
2023/04/14 11:45:27;;;;;;;3.20;1.70;;;17.10;99.90;;;;;;5074419;28;20209;-82
2023/04/14 11:47:58;;;;;;;4.15;1.30;;;17.10;99.90;;;;;;5074715;28;20252;-83
2023/04/14 11:50:26;;;;;;;4.97;1.63;;;17.10;99.90;;;;;;5074146;28;20620;-86
2023/04/14 11:52:58;;;;;;;3.03;1.38;;;16.90;99.90;;;;;;5073446;28;20229;-85
2023/04/14 11:55:25;;;;;;;4.35;1.60;;;17.00;99.90;;;;;;5075050;28;20233;-85
2023/04/14 11:57:52;;;;;;;5.43;1.73;;;17.40;99.90;;;;;;5075500;28;20201;-85
2023/04/14 12:00:19;;;;;;;3.10;1.13;;;17.30;99.90;;;;;;5058862;28;20685;-88
2023/04/14 12:02:47;;;;;;;5.20;1.63;;;17.40;99.90;;;;;;5055005;28;20580;-86
2023/04/14 12:05:19;;;;;;;4.85;1.85;;;17.30;99.90;;;;;;5057521;28;20582;-82
2023/04/14 12:07:48;;;;;;;3.65;1.60;;;17.20;99.90;;;;;;5065706;28;20216;-82
2023/04/14 12:10:16;;;;;;;3.25;1.60;;;17.40;99.90;;;;;;5057455;28;20700;-84
2023/04/14 12:12:43;;;;;;;5.13;1.95;;;17.50;99.90;;;;;;5055064;28;20198;-82
2023/04/14 12:15:12;;;;;;;5.25;1.83;;;17.40;99.90;;;;;;5055328;28;20290;-83
2023/04/14 12:17:40;;;;;;;3.53;2.13;;;17.50;99.90;;;;;;5071787;28;20209;-86
2023/04/14 12:20:14;;;;;;;4.35;1.52;;;17.60;99.90;;;;;;5073984;28;20216;-82
2023/04/14 12:22:41;;;;;;;3.85;1.48;;;17.30;99.90;;;;;;5073196;28;20232;-82
2023/04/14 12:25:11;;;;;;;6.15;1.52;;;17.00;99.90;;;;;;5073666;28;20280;-85
2023/04/14 12:27:39;;;;;;;3.60;1.80;;;16.60;99.90;;;;;;5073146;28;20586;-88
2023/04/14 12:30:08;;;;;;;2.05;1.23;;;16.50;99.90;;;;;;5074183;28;20255;-88
2023/04/14 12:32:42;;;;;;;3.30;1.67;;;16.80;99.90;;;;;;5073984;28;20201;-85
2023/04/14 12:35:09;;;;;;;3.90;1.58;;;17.10;99.90;;;;;;5074671;28;20203;-87
2023/04/14 12:37:37;;;;;;;3.50;1.58;;;17.40;99.90;;;;;;5074256;28;20469;-81
2023/04/14 12:40:06;;;;;;;4.20;1.50;;;17.60;99.90;;;;;;5073004;28;20233;-82
2023/04/14 12:42:48;;;;;;;4.68;1.73;;;17.70;99.90;;;;;;5073948;28;20504;-82
2023/04/14 12:45:16;;;;;;;3.78;1.63;;;17.50;99.90;;;;;;5073511;28;20197;-83
2023/04/14 12:47:52;;;;;;;3.08;1.50;;;17.10;99.90;;;;;;5073140;28;20196;-78
2023/04/14 12:50:26;;;;;;;4.28;1.60;;;17.10;99.90;;;;;;5072937;28;20224;-84
2023/04/14 12:52:54;;;;;;;4.57;1.58;;;17.10;99.90;;;;;;5073509;28;20262;-84
2023/04/14 12:55:22;;;;;;;2.72;1.50;;;16.90;99.90;;;;;;5070882;28;20605;-80
2023/04/14 12:57:53;;;;;;;4.03;1.48;;;17.00;99.90;;;;;;5072305;28;20635;-80